Pineville, WV

6:29 AM EST on December 13, 2019 (GMT -0500)
Pineville

Weather History for KI16 - October, 2019

Change the Weather History Date:

Wednesday, October 23, 2019

  Actual Average (WUND) Record (WUND)
Temperature  
Mean Temperature 50 °F -  
Max Temperature 63 °F - - (-1)
Min Temperature 38 °F - - (-1)
Degree Days  
Heating Degree Days 14    
Moisture  
Dew Point 37 °F    
Average Humidity 74    
Maximum Humidity 97    
Minimum Humidity 23    
Precipitation  
Precipitation 0.00 in - - ()
Sea Level Pressure  
Sea Level Pressure 30.18 in    
Wind  
Wind Speed - ()    
Max Wind Speed -    
Max Gust Speed -    
Visibility 10.0 miles    
Events      
Averages and records for this station are not official NWS values.
T = Trace of Precipitation, MM = Missing Value Source: Averaged Metar Reports

Daily Weather History Graph

Daily Weather History Graph

Search for Another Location

Airport or City:

Astronomy

Oct. 23, 2019 Rise Set
Actual Time 7:41 AM EDT 6:38 PM EDT
Civil Twilight 7:15 AM EDT 7:05 PM EDT
Nautical Twilight 6:44 AM EDT 7:35 PM EDT
Astronomical Twilight 6:14 AM EDT 8:06 PM EDT
Moon 2:07 AM EDT (10/23) 4:20 PM EDT (10/23)
Length of Visible Light 11h 50m
Length of Day
10h 56m
Waning Crescent, 27% of the Moon is Illuminated
Oct 23
Waning Crescent
Oct 27
New
Nov 4
First Quarter
Nov 12
Full
Nov 19
Last Quarter

Hourly Weather History & Observations

Time (EDT) Temp. Dew Point Humidity Pressure Visibility Wind Dir Wind Speed Gust Speed Precip Events Conditions
12:15 AM 43.7 °F 41.9 °F 93% 30.03 in 10.0 mi North - - N/A   Clear
12:35 AM 43.2 °F 41.7 °F 95% 30.03 in 10.0 mi North - - N/A   Unknown
1:00 AM 43.9 °F 42.4 °F 95% 30.04 in 10.0 mi North - - N/A   Unknown
1:15 AM 43.7 °F 42.3 °F 95% 30.04 in 10.0 mi North - - N/A   Unknown
1:35 AM 43.3 °F 41.9 °F 95% 30.04 in 10.0 mi North - - N/A   Unknown
1:55 AM 43.3 °F 42.1 °F 95% 30.04 in 10.0 mi North - - N/A   Unknown
2:20 AM 43.0 °F 41.9 °F 96% 30.05 in 10.0 mi North - - N/A   Unknown
2:35 AM 43.2 °F 42.1 °F 96% 30.05 in 10.0 mi North - - N/A   Unknown
2:55 AM 43.2 °F 42.1 °F 96% 30.07 in 10.0 mi North - - N/A   Mostly Cloudy
3:15 AM 43.3 °F 42.3 °F 96% 30.07 in 10.0 mi North - - N/A   Mostly Cloudy
3:35 AM 43.7 °F 42.6 °F 96% 30.08 in 10.0 mi North - - N/A   Overcast
3:55 AM 43.9 °F 42.8 °F 96% 30.09 in 10.0 mi North - - N/A   Overcast
4:15 AM 43.9 °F 43.0 °F 97% 30.09 in 10.0 mi North - - N/A   Mostly Cloudy
4:35 AM 43.7 °F 42.8 °F 97% 30.09 in 10.0 mi North - - N/A   Scattered Clouds
4:55 AM 43.7 °F 42.8 °F 97% 30.10 in 10.0 mi North - - N/A   Scattered Clouds
5:15 AM 42.8 °F 41.9 °F 97% 30.11 in 10.0 mi North - - N/A   Scattered Clouds
5:40 AM 42.3 °F 41.4 °F 97% 30.12 in 10.0 mi North - - N/A   Unknown
5:55 AM 42.3 °F 41.4 °F 97% 30.12 in 10.0 mi North - - N/A   Unknown
6:15 AM 41.5 °F 40.5 °F 96% 30.12 in 10.0 mi North - - N/A   Unknown
6:35 AM 41.2 °F 40.1 °F 96% 30.13 in 10.0 mi North - - N/A   Unknown
6:55 AM 40.1 °F 39.2 °F 97% 30.14 in 10.0 mi North - - N/A   Clear
7:15 AM 40.1 °F 39.2 °F 97% 30.14 in 10.0 mi North - - N/A   Clear
7:35 AM 39.6 °F 38.5 °F 96% 30.14 in 10.0 mi North - - N/A   Clear
7:55 AM 38.8 °F 37.8 °F 96% 30.14 in 10.0 mi North - - N/A   Clear
8:15 AM 38.5 °F 37.4 °F 96% 30.15 in 10.0 mi North - - N/A   Clear
8:35 AM 39.2 °F 38.1 °F 96% 30.16 in 10.0 mi North - - N/A   Unknown
8:55 AM 39.7 °F 38.5 °F 95% 30.18 in 10.0 mi North - - N/A   Unknown
9:15 AM 42.6 °F 41.4 °F 95% 30.18 in 10.0 mi North - - N/A   Unknown
9:35 AM 46.0 °F 44.2 °F 93% 30.19 in 10.0 mi North - - N/A   Unknown
9:55 AM 48.0 °F 45.3 °F 90% 30.19 in 10.0 mi North - - N/A   Unknown
10:15 AM 51.8 °F 41.0 °F 67% 30.19 in 10.0 mi North - - N/A   Unknown
10:35 AM 52.7 °F 40.3 °F 63% 30.20 in 10.0 mi North - - N/A   Unknown
10:55 AM 54.0 °F 39.2 °F 57% 30.21 in 10.0 mi North - - N/A   Clear
11:15 AM 55.4 °F 37.8 °F 52% 30.22 in 10.0 mi North - - N/A   Clear
11:35 AM 55.8 °F 34.9 °F 45% 30.22 in 10.0 mi North - - N/A   Clear
11:55 AM 56.1 °F 32.9 °F 41% 30.23 in 10.0 mi North - - N/A   Clear
12:15 PM 57.2 °F 32.5 °F 39% 30.23 in 10.0 mi North - - N/A   Clear
12:35 PM 58.1 °F 32.4 °F 38% 30.23 in 10.0 mi North - - N/A   Clear
12:55 PM 58.3 °F 30.9 °F 35% 30.23 in 10.0 mi North - - N/A   Clear
1:15 PM 59.5 °F 30.6 °F 33% 30.22 in 10.0 mi North - - N/A   Clear
1:35 PM 60.4 °F 28.9 °F 30% 30.22 in 10.0 mi North - - N/A   Clear
1:55 PM 61.7 °F 28.9 °F 29% 30.21 in 10.0 mi North - - N/A   Clear
2:15 PM 61.2 °F 28.0 °F 28% 30.21 in 10.0 mi North - - N/A   Clear
2:55 PM 62.4 °F 26.6 °F 26% 30.21 in 10.0 mi North - - N/A   Clear
3:15 PM 62.2 °F 25.5 °F 25% 30.21 in 10.0 mi North - - N/A   Clear
3:35 PM 62.6 °F 24.8 °F 24% 30.21 in 10.0 mi North - - N/A   Clear
3:55 PM 62.8 °F 24.6 °F 23% 30.21 in 10.0 mi North - - N/A   Clear
4:15 PM 63.0 °F 26.2 °F 25% 30.21 in 10.0 mi North - - N/A   Clear
4:55 PM - - N/A% - - North - - N/A   Unknown
5:15 PM 56.3 °F 34.2 °F 43% 30.21 in 10.0 mi North - - N/A   Clear
5:35 PM 54.1 °F 35.2 °F 49% 30.22 in 10.0 mi North - - N/A   Clear
5:55 PM 53.1 °F 36.9 °F 54% 30.22 in 10.0 mi North - - N/A   Clear
6:15 PM 51.8 °F 37.0 °F 57% 30.23 in 10.0 mi North - - N/A   Clear
6:35 PM 50.4 °F 37.8 °F 62% 30.23 in 10.0 mi North - - N/A   Clear
6:55 PM 49.1 °F 36.9 °F 63% 30.23 in 10.0 mi North - - N/A   Clear
7:15 PM 47.7 °F 39.2 °F 72% 30.24 in 10.0 mi North - - N/A   Clear
7:35 PM 46.4 °F 37.9 °F 72% 30.25 in 10.0 mi North - - N/A   Clear
7:55 PM 45.1 °F 37.9 °F 76% 30.25 in 10.0 mi North - - N/A   Clear
8:15 PM 44.6 °F 37.2 °F 75% 30.26 in 10.0 mi North - - N/A   Clear
8:55 PM 43.3 °F 37.2 °F 79% 30.28 in 10.0 mi North - - N/A   Clear
9:15 PM 42.8 °F 37.0 °F 80% 30.28 in 10.0 mi North - - N/A   Clear
9:35 PM 41.9 °F 37.4 °F 84% 30.28 in 10.0 mi North - - N/A   Unknown
9:55 PM 41.2 °F 37.2 °F 86% 30.29 in 10.0 mi North - - N/A   Unknown
10:15 PM 41.2 °F 37.4 °F 86% 30.29 in 10.0 mi North - - N/A   Unknown
10:35 PM 41.0 °F 36.9 °F 85% 30.29 in 10.0 mi North - - N/A   Unknown
10:55 PM 40.8 °F 36.9 °F 86% 30.29 in 10.0 mi North - - N/A   Unknown
11:15 PM 40.5 °F 37.2 °F 88% 30.29 in 10.0 mi North - - N/A   Unknown
11:35 PM 39.6 °F 37.0 °F 91% 30.29 in 10.0 mi North - - N/A   Unknown
11:55 PM 39.4 °F 36.7 °F 90% 30.29 in 10.0 mi North - - N/A   Clear